createdAt,value
2022-09-21T00:01:33.063Z,1.40
2022-09-21T00:04:01.348Z,1.20
2022-09-21T00:06:28.902Z,1.20
2022-09-21T00:08:56.128Z,1.00
2022-09-21T00:11:27.683Z,1.00
2022-09-21T00:13:55.272Z,1.23
2022-09-21T00:16:21.940Z,1.00
2022-09-21T00:18:48.525Z,0.95
2022-09-21T00:21:16.066Z,1.10
2022-09-21T00:23:43.017Z,0.90
2022-09-21T00:26:11.102Z,1.23
2022-09-21T00:28:38.008Z,1.10
2022-09-21T00:31:05.501Z,1.00
2022-09-21T00:33:32.211Z,1.10
2022-09-21T00:36:02.598Z,1.00
2022-09-21T00:38:29.026Z,1.20
2022-09-21T00:40:55.833Z,0.98
2022-09-21T00:43:22.324Z,1.20
2022-09-21T00:45:49.928Z,1.17
2022-09-21T00:48:16.734Z,1.20
2022-09-21T00:50:46.634Z,1.30
2022-09-21T00:53:13.419Z,1.20
2022-09-21T00:55:42.674Z,1.02
2022-09-21T00:58:11.827Z,1.10
2022-09-21T01:00:39.754Z,1.00
2022-09-21T01:03:06.613Z,1.00
2022-09-21T01:05:33.302Z,1.00
2022-09-21T01:08:01.941Z,1.20
2022-09-21T01:10:30.209Z,1.17
2022-09-21T01:13:05.974Z,1.20
2022-09-21T01:15:32.415Z,1.40
2022-09-21T01:17:58.943Z,1.27
2022-09-21T01:20:31.309Z,1.50
2022-09-21T01:22:57.748Z,1.50
2022-09-21T01:25:24.243Z,1.50
2022-09-21T01:28:05.727Z,1.30
2022-09-21T01:30:33.978Z,1.35
2022-09-21T01:33:06.110Z,1.20
2022-09-21T01:35:35.709Z,1.33
2022-09-21T01:38:17.553Z,1.40
2022-09-21T01:40:45.337Z,1.00
2022-09-21T01:43:14.798Z,1.50
2022-09-21T01:45:44.032Z,1.25
2022-09-21T01:48:11.179Z,1.33
2022-09-21T01:50:41.434Z,1.40
2022-09-21T01:53:11.491Z,1.60
2022-09-21T01:55:41.266Z,1.23
2022-09-21T01:58:14.303Z,1.27
2022-09-21T02:00:42.139Z,1.30
2022-09-21T02:03:08.737Z,1.70
2022-09-21T02:05:35.097Z,1.30
2022-09-21T02:08:02.076Z,1.17
2022-09-21T02:10:33.495Z,1.20
2022-09-21T02:13:01.183Z,1.20
2022-09-21T02:15:53.294Z,1.20
2022-09-21T02:18:20.687Z,1.58
2022-09-21T02:20:52.718Z,1.42
2022-09-21T02:23:49.205Z,1.05
2022-09-21T02:26:20.278Z,1.35
2022-09-21T02:31:15.928Z,1.58
2022-09-21T02:33:51.422Z,1.25
2022-09-21T02:36:30.376Z,1.10
2022-09-21T02:39:05.277Z,1.63
2022-09-21T02:41:40.705Z,1.27
2022-09-21T02:44:18.730Z,1.40
2022-09-21T02:46:54.137Z,1.63
2022-09-21T02:49:26.253Z,1.10
2022-09-21T02:51:54.115Z,1.33
2022-09-21T02:54:22.521Z,1.10
2022-09-21T02:56:49.106Z,1.40
2022-09-21T02:59:16.586Z,1.33
2022-09-21T03:01:43.547Z,1.20
2022-09-21T03:04:10.848Z,1.40
2022-09-21T03:06:37.211Z,1.20
2022-09-21T03:09:03.571Z,1.38
2022-09-21T03:11:29.951Z,1.25
2022-09-21T03:13:56.246Z,1.30
2022-09-21T03:16:24.076Z,1.20
2022-09-21T03:18:50.400Z,1.23
2022-09-21T03:21:16.926Z,1.40
2022-09-21T03:23:43.375Z,1.40
2022-09-21T03:26:09.718Z,1.50
2022-09-21T03:28:36.158Z,1.30
2022-09-21T03:31:02.572Z,1.30
2022-09-21T03:33:28.931Z,1.23
2022-09-21T03:35:55.246Z,1.40
2022-09-21T03:38:21.636Z,1.77
2022-09-21T03:40:48.968Z,1.38
2022-09-21T03:43:15.735Z,1.30
2022-09-21T03:45:42.602Z,1.90
2022-09-21T03:48:10.161Z,1.30
2022-09-21T03:50:36.678Z,1.50
2022-09-21T03:53:03.439Z,1.63
2022-09-21T03:55:29.828Z,1.40
2022-09-21T03:57:56.195Z,1.67
2022-09-21T04:00:22.677Z,1.55
2022-09-21T04:02:49.061Z,1.60
2022-09-21T04:05:15.930Z,1.80
2022-09-21T04:07:45.566Z,1.60
2022-09-21T04:10:13.107Z,1.67
2022-09-21T04:12:42.296Z,1.50
2022-09-21T04:15:10.397Z,1.60
2022-09-21T04:17:36.807Z,1.80
2022-09-21T04:20:03.735Z,2.00
2022-09-21T04:22:31.449Z,1.70
2022-09-21T04:24:58.500Z,1.40
2022-09-21T04:27:24.970Z,1.40
2022-09-21T04:29:51.276Z,1.38
2022-09-21T04:32:17.559Z,1.40
2022-09-21T04:34:44.061Z,1.45
2022-09-21T04:37:11.830Z,1.40
2022-09-21T04:39:38.155Z,1.50
2022-09-21T04:42:05.062Z,1.75
2022-09-21T04:44:31.387Z,1.60
2022-09-21T04:46:58.280Z,1.40
2022-09-21T04:49:24.580Z,1.50
2022-09-21T04:51:51.254Z,1.70
2022-09-21T04:54:17.712Z,1.67
2022-09-21T04:56:44.114Z,1.60
2022-09-21T04:59:10.642Z,1.55
2022-09-21T05:01:37.084Z,1.60
2022-09-21T05:04:03.499Z,1.38
2022-09-21T05:06:30.138Z,1.60
2022-09-21T05:09:14.983Z,1.60
2022-09-21T05:11:41.600Z,1.90
2022-09-21T05:14:08.249Z,1.80
2022-09-21T05:16:34.956Z,1.70
2022-09-21T05:19:01.551Z,1.50
2022-09-21T05:21:28.041Z,1.67
2022-09-21T05:23:54.798Z,1.40
2022-09-21T05:26:21.306Z,1.90
2022-09-21T05:28:47.801Z,1.50
2022-09-21T05:31:18.446Z,1.90
2022-09-21T05:33:58.469Z,1.60
2022-09-21T05:36:39.273Z,1.48
2022-09-21T05:39:06.928Z,1.50
2022-09-21T05:41:33.554Z,1.52
2022-09-21T05:44:00.171Z,1.70
2022-09-21T05:46:35.914Z,1.55
2022-09-21T05:49:04.941Z,1.80
2022-09-21T05:51:51.956Z,1.60
2022-09-21T05:54:32.435Z,1.73
2022-09-21T05:57:16.805Z,1.43
2022-09-21T05:59:49.924Z,1.60
2022-09-21T06:02:16.208Z,1.50
2022-09-21T06:04:43.200Z,1.50
2022-09-21T06:07:09.582Z,1.52
2022-09-21T06:09:37.979Z,1.70
2022-09-21T06:12:11.289Z,1.80
2022-09-21T06:14:38.094Z,1.67
2022-09-21T06:17:04.527Z,1.65
2022-09-21T06:19:30.812Z,1.70
2022-09-21T06:21:57.257Z,1.60
2022-09-21T06:24:25.182Z,1.58
2022-09-21T06:26:53.706Z,1.80
2022-09-21T06:29:23.433Z,1.75
2022-09-21T06:31:51.053Z,1.90
2022-09-21T06:34:17.909Z,1.67
2022-09-21T06:36:45.545Z,1.70
2022-09-21T06:39:12.435Z,1.77
2022-09-21T06:41:38.862Z,1.98
2022-09-21T06:44:09.634Z,2.03
2022-09-21T06:46:37.287Z,2.20
2022-09-21T06:49:03.629Z,2.00
2022-09-21T06:51:29.956Z,3.38
2022-09-21T06:53:56.877Z,2.72
2022-09-21T06:56:23.562Z,2.72
2022-09-21T06:58:50.313Z,2.70
2022-09-21T07:01:16.797Z,2.83
2022-09-21T07:03:43.570Z,2.45
2022-09-21T07:06:15.552Z,2.60
2022-09-21T07:11:28.918Z,3.05
2022-09-21T07:13:56.062Z,3.00
2022-09-21T07:16:23.308Z,3.03
2022-09-21T07:18:50.018Z,3.33
2022-09-21T07:21:16.703Z,3.30
2022-09-21T07:23:43.111Z,3.88
2022-09-21T07:26:11.032Z,4.47
2022-09-21T07:28:37.577Z,4.85
2022-09-21T07:31:12.379Z,5.38
2022-09-21T07:33:38.769Z,5.38
2022-09-21T07:36:10.171Z,5.05
2022-09-21T07:38:39.996Z,4.15
2022-09-21T07:41:15.564Z,4.10
2022-09-21T07:43:42.225Z,3.75
2022-09-21T07:46:10.944Z,3.72
2022-09-21T07:48:37.713Z,3.97
2022-09-21T07:51:07.520Z,3.13
2022-09-21T07:53:34.513Z,2.72
2022-09-21T07:56:04.582Z,2.78
2022-09-21T07:58:49.781Z,1.90
2022-09-21T08:01:16.426Z,1.83
2022-09-21T08:03:42.742Z,1.95
2022-09-21T08:06:09.276Z,2.03
2022-09-21T08:08:36.073Z,1.50
2022-09-21T08:11:04.083Z,2.00
2022-09-21T08:13:30.437Z,1.58
2022-09-21T08:16:00.681Z,1.38
2022-09-21T08:18:27.242Z,1.35
2022-09-21T08:20:55.110Z,1.80
2022-09-21T08:23:21.455Z,1.33
2022-09-21T08:25:48.227Z,1.60
2022-09-21T08:28:15.133Z,1.60
2022-09-21T08:30:42.060Z,1.48
2022-09-21T08:33:09.020Z,1.70
2022-09-21T08:35:36.883Z,1.17
2022-09-21T08:38:03.265Z,1.52
2022-09-21T08:40:29.600Z,1.83
2022-09-21T08:42:59.617Z,1.38
2022-09-21T08:45:31.558Z,1.30
2022-09-21T08:47:59.038Z,1.30
2022-09-21T08:50:37.834Z,1.38
2022-09-21T08:53:06.739Z,1.30
2022-09-21T08:55:33.395Z,1.40
2022-09-21T08:58:00.937Z,1.00
2022-09-21T09:00:28.767Z,1.15
2022-09-21T09:03:21.238Z,1.30
2022-09-21T09:05:51.063Z,0.85
2022-09-21T09:08:36.778Z,1.00
2022-09-21T09:11:03.171Z,1.00
2022-09-21T09:13:48.494Z,1.27
2022-09-21T09:16:20.956Z,0.93
2022-09-21T09:18:51.327Z,1.23
2022-09-21T09:21:30.783Z,1.20
2022-09-21T09:24:04.500Z,1.20
2022-09-21T09:26:36.811Z,1.00
2022-09-21T09:29:07.136Z,1.25
2022-09-21T09:31:37.046Z,1.10
2022-09-21T09:34:10.891Z,0.80
2022-09-21T09:36:57.742Z,1.05
2022-09-21T09:39:25.158Z,0.95
2022-09-21T09:42:10.156Z,0.85
2022-09-21T09:44:54.576Z,1.30
2022-09-21T09:47:23.691Z,0.95
2022-09-21T09:50:09.577Z,1.00
2022-09-21T09:52:36.353Z,1.00
2022-09-21T09:55:23.352Z,1.00
2022-09-21T09:57:50.256Z,1.00
2022-09-21T10:00:18.152Z,0.77
2022-09-21T10:02:49.416Z,1.05
2022-09-21T10:05:20.563Z,1.50
2022-09-21T10:07:47.323Z,0.90
2022-09-21T10:10:28.936Z,1.13
2022-09-21T10:12:56.340Z,1.73
2022-09-21T10:15:26.305Z,1.60
2022-09-21T10:18:04.092Z,1.42
2022-09-21T10:20:32.879Z,3.70
2022-09-21T10:22:59.762Z,1.70
2022-09-21T10:25:26.376Z,1.30
2022-09-21T10:27:53.083Z,0.90
2022-09-21T10:30:36.106Z,1.30
2022-09-21T10:33:02.455Z,0.70
2022-09-21T10:35:29.659Z,0.90
2022-09-21T10:38:10.049Z,0.98
2022-09-21T10:40:37.345Z,0.90
2022-09-21T10:43:04.189Z,1.02
2022-09-21T10:45:32.075Z,1.00
2022-09-21T10:48:06.410Z,0.90
2022-09-21T10:50:38.700Z,1.15
2022-09-21T10:53:11.362Z,0.90
2022-09-21T10:55:44.052Z,0.68
2022-09-21T10:58:19.691Z,0.65
2022-09-21T11:03:49.255Z,0.70
2022-09-21T11:06:22.450Z,1.00
2022-09-21T11:08:53.316Z,0.70
2022-09-21T11:11:39.431Z,0.80
2022-09-21T11:14:25.922Z,0.90
2022-09-21T11:17:00.135Z,0.70
2022-09-21T11:19:35.427Z,0.82
2022-09-21T11:22:02.183Z,0.90
2022-09-21T11:24:28.663Z,0.73
2022-09-21T11:27:18.151Z,0.52
2022-09-21T11:29:44.989Z,0.60
2022-09-21T11:32:30.214Z,0.77
2022-09-21T11:35:16.891Z,0.55
2022-09-21T11:37:49.344Z,0.73
2022-09-21T11:40:30.429Z,1.00
2022-09-21T11:43:04.198Z,1.15
2022-09-21T11:45:50.667Z,0.60
2022-09-21T11:48:23.428Z,0.85
2022-09-21T11:50:57.478Z,0.80
2022-09-21T11:53:36.994Z,0.50
2022-09-21T11:56:06.190Z,0.52
2022-09-21T11:58:39.572Z,0.60
2022-09-21T12:01:14.801Z,0.95
2022-09-21T12:04:00.262Z,0.60
2022-09-21T12:06:45.606Z,0.70
2022-09-21T12:09:30.432Z,0.70
2022-09-21T12:12:03.158Z,0.70
2022-09-21T12:14:34.241Z,0.88
2022-09-21T12:17:06.664Z,0.90
2022-09-21T12:19:39.539Z,0.70
2022-09-21T12:22:15.300Z,0.75
2022-09-21T12:24:47.261Z,0.80
2022-09-21T12:27:23.039Z,1.05
2022-09-21T12:29:53.257Z,0.77
2022-09-21T12:32:19.719Z,0.60
2022-09-21T12:34:49.408Z,0.98
2022-09-21T12:37:25.738Z,0.93
2022-09-21T12:40:07.575Z,0.95
2022-09-21T12:42:38.737Z,0.60
2022-09-21T12:45:05.233Z,0.80
2022-09-21T12:47:34.274Z,0.75
2022-09-21T12:50:07.969Z,1.00
2022-09-21T12:52:35.163Z,0.75
2022-09-21T12:55:10.718Z,0.90
2022-09-21T12:58:14.225Z,0.80
2022-09-21T13:01:02.529Z,0.90
2022-09-21T13:03:44.144Z,1.00
2022-09-21T13:06:30.819Z,0.80
2022-09-21T13:09:00.239Z,1.00
2022-09-21T13:11:26.558Z,0.88
2022-09-21T13:13:57.077Z,0.80
2022-09-21T13:16:26.262Z,1.00
2022-09-21T13:18:57.946Z,0.90
2022-09-21T13:21:29.817Z,0.90
2022-09-21T13:23:57.903Z,1.00
2022-09-21T13:26:31.316Z,1.08
2022-09-21T13:28:58.203Z,0.88
2022-09-21T13:31:47.781Z,1.10
2022-09-21T13:34:25.360Z,1.15
2022-09-21T13:37:19.005Z,1.20
2022-09-21T13:39:48.399Z,1.00
2022-09-21T13:42:30.065Z,0.85
2022-09-21T13:45:00.532Z,1.00
2022-09-21T13:47:29.915Z,1.02
2022-09-21T13:50:00.483Z,0.90
2022-09-21T13:52:27.715Z,1.00
2022-09-21T13:54:58.488Z,0.88
2022-09-21T13:57:28.262Z,0.98
2022-09-21T14:00:12.761Z,1.00
2022-09-21T14:02:41.244Z,0.90
2022-09-21T14:05:17.392Z,0.88
2022-09-21T14:07:46.775Z,0.65
2022-09-21T14:12:42.932Z,1.00
2022-09-21T14:15:19.325Z,1.10
2022-09-21T14:18:07.895Z,1.08
2022-09-21T14:20:39.363Z,0.70
2022-09-21T14:23:27.680Z,0.80
2022-09-21T14:25:57.948Z,0.75
2022-09-21T14:28:43.115Z,0.90
2022-09-21T14:31:16.012Z,0.88
2022-09-21T14:33:48.146Z,0.88
2022-09-21T14:36:17.666Z,1.08
2022-09-21T14:38:51.856Z,0.60
2022-09-21T14:41:22.460Z,0.80
2022-09-21T14:43:53.641Z,0.82
2022-09-21T14:46:23.392Z,0.77
2022-09-21T14:49:04.537Z,0.77
2022-09-21T14:51:40.067Z,1.02
2022-09-21T14:54:21.735Z,6.30
2022-09-21T14:57:00.197Z,1.15
2022-09-21T14:59:29.606Z,1.13
2022-09-21T15:01:59.471Z,1.02
2022-09-21T15:04:46.335Z,1.20
2022-09-21T15:07:51.754Z,1.20
2022-09-21T15:10:49.681Z,0.82
2022-09-21T15:13:32.369Z,0.98
2022-09-21T15:16:07.073Z,1.25
2022-09-21T15:18:36.105Z,2.45
2022-09-21T15:23:34.590Z,0.80
2022-09-21T15:26:03.271Z,1.27
2022-09-21T15:29:05.418Z,1.02
2022-09-21T15:31:36.669Z,0.93
2022-09-21T15:34:07.325Z,0.98
2022-09-21T15:36:35.532Z,1.15
2022-09-21T15:39:02.065Z,1.10
2022-09-21T15:41:42.814Z,0.95
2022-09-21T15:44:22.860Z,1.20
2022-09-21T15:46:57.810Z,1.13
2022-09-21T15:49:25.030Z,1.10
2022-09-21T15:51:56.469Z,1.33
2022-09-21T15:54:32.019Z,1.00
2022-09-21T15:57:07.446Z,1.20
2022-09-21T15:59:34.964Z,1.00
2022-09-21T16:02:10.344Z,1.00
2022-09-21T16:04:39.508Z,1.00
2022-09-21T16:07:07.134Z,1.23
2022-09-21T16:09:37.538Z,1.20
2022-09-21T16:12:24.123Z,1.10
2022-09-21T16:14:59.653Z,1.00
2022-09-21T16:17:29.775Z,1.23
2022-09-21T16:19:58.993Z,1.27
2022-09-21T16:22:37.526Z,1.10
2022-09-21T16:25:13.692Z,1.10
2022-09-21T16:27:49.080Z,1.48
2022-09-21T16:30:35.393Z,1.52
2022-09-21T16:33:02.436Z,1.63
2022-09-21T16:35:29.094Z,1.85
2022-09-21T16:37:58.720Z,2.00
2022-09-21T16:40:26.105Z,1.35
2022-09-21T16:42:54.239Z,1.10
2022-09-21T16:45:28.664Z,1.05
2022-09-21T16:47:56.156Z,2.40
2022-09-21T16:50:24.022Z,3.75
2022-09-21T16:52:52.321Z,3.40
2022-09-21T16:55:19.631Z,3.17
2022-09-21T16:57:47.269Z,2.30
2022-09-21T17:00:14.175Z,2.03
2022-09-21T17:02:42.702Z,1.40
2022-09-21T17:05:09.632Z,1.27
2022-09-21T17:07:36.283Z,1.50
2022-09-21T17:10:10.658Z,1.60
2022-09-21T17:12:39.333Z,1.40
2022-09-21T17:15:07.634Z,1.60
2022-09-21T17:17:33.975Z,1.40
2022-09-21T17:20:02.707Z,1.95
2022-09-21T17:22:29.500Z,2.00
2022-09-21T17:24:55.834Z,2.00
2022-09-21T17:27:23.410Z,1.48
2022-09-21T17:29:50.249Z,1.63
2022-09-21T17:32:20.070Z,1.50
2022-09-21T17:34:49.958Z,2.17
2022-09-21T17:37:16.242Z,1.63
2022-09-21T17:39:44.843Z,1.75
2022-09-21T17:42:16.514Z,1.85
2022-09-21T17:44:46.067Z,1.65
2022-09-21T17:47:28.087Z,1.70
2022-09-21T17:49:58.144Z,1.80
2022-09-21T17:52:44.385Z,1.60
2022-09-21T17:55:11.747Z,1.65
2022-09-21T17:57:44.546Z,1.35
2022-09-21T18:00:19.445Z,1.60
2022-09-21T18:02:46.306Z,1.60
2022-09-21T18:05:22.692Z,1.30
2022-09-21T18:07:50.183Z,1.33
2022-09-21T18:10:17.447Z,1.02
2022-09-21T18:12:59.055Z,0.95
2022-09-21T18:15:28.539Z,1.40
2022-09-21T18:18:12.486Z,1.98
2022-09-21T18:21:02.281Z,2.00
2022-09-21T18:23:32.881Z,1.52
2022-09-21T18:26:00.472Z,1.60
2022-09-21T18:28:35.116Z,1.52
2022-09-21T18:31:16.843Z,1.70
2022-09-21T18:34:03.636Z,2.10
2022-09-21T18:36:40.032Z,2.30
2022-09-21T18:39:12.503Z,2.03
2022-09-21T18:41:51.715Z,1.73
2022-09-21T18:44:23.834Z,2.92
2022-09-21T18:47:01.478Z,2.00
2022-09-21T18:49:45.231Z,1.42
2022-09-21T18:52:35.835Z,2.00
2022-09-21T18:55:02.553Z,1.85
2022-09-21T18:57:32.257Z,1.80
2022-09-21T18:59:59.295Z,1.80
2022-09-21T19:02:25.865Z,2.00
2022-09-21T19:04:52.575Z,1.70
2022-09-21T19:07:27.528Z,1.25
2022-09-21T19:10:09.525Z,1.63
2022-09-21T19:12:53.812Z,1.83
2022-09-21T19:15:36.484Z,2.13
2022-09-21T19:18:19.926Z,1.70
2022-09-21T19:20:46.710Z,1.40
2022-09-21T19:23:15.965Z,1.85
2022-09-21T19:25:48.830Z,1.50
2022-09-21T19:28:15.994Z,1.25
2022-09-21T19:30:42.802Z,1.63
2022-09-21T19:33:45.462Z,1.33
2022-09-21T19:36:08.842Z,1.83
2022-09-21T19:38:35.442Z,2.42
2022-09-21T19:41:06.956Z,2.40
2022-09-21T19:43:39.898Z,3.67
2022-09-21T19:46:18.661Z,3.65
2022-09-21T19:48:46.275Z,2.33
2022-09-21T19:51:18.617Z,2.85
2022-09-21T19:54:04.059Z,2.60
2022-09-21T19:56:54.704Z,2.50
2022-09-21T19:59:40.296Z,2.88
2022-09-21T20:02:06.987Z,2.20
2022-09-21T20:04:42.517Z,2.45
2022-09-21T20:07:27.741Z,1.88
2022-09-21T20:10:24.151Z,2.28
2022-09-21T20:13:01.466Z,2.20
2022-09-21T20:15:32.651Z,2.20
2022-09-21T20:18:05.363Z,2.33
2022-09-21T20:20:31.911Z,3.20
2022-09-21T20:23:00.167Z,2.15
2022-09-21T20:25:38.611Z,2.38
2022-09-21T20:28:05.307Z,2.70
2022-09-21T20:30:32.938Z,2.47
2022-09-21T20:33:05.227Z,2.22
2022-09-21T20:35:31.641Z,1.92
2022-09-21T20:38:02.243Z,1.88
2022-09-21T20:40:29.230Z,1.48
2022-09-21T20:42:56.069Z,1.80
2022-09-21T20:45:22.705Z,1.60
2022-09-21T20:47:49.623Z,1.70
2022-09-21T20:50:16.399Z,2.38
2022-09-21T20:52:43.105Z,2.42
2022-09-21T20:55:10.846Z,2.20
2022-09-21T20:57:37.454Z,1.90
2022-09-21T21:00:08.335Z,1.63
2022-09-21T21:02:35.200Z,1.58
2022-09-21T21:07:44.846Z,1.73
2022-09-21T21:10:15.578Z,1.70
2022-09-21T21:12:42.164Z,2.30
2022-09-21T21:15:09.201Z,1.90
2022-09-21T21:17:35.901Z,1.83
2022-09-21T21:20:02.860Z,1.80
2022-09-21T21:22:29.129Z,1.75
2022-09-21T21:24:55.469Z,1.83
2022-09-21T21:27:23.103Z,2.20
2022-09-21T21:29:50.246Z,2.47
2022-09-21T21:32:20.091Z,2.53
2022-09-21T21:34:46.892Z,2.38
2022-09-21T21:37:13.804Z,2.45
2022-09-21T21:39:40.091Z,2.28
2022-09-21T21:42:06.648Z,2.70
2022-09-21T21:44:32.960Z,3.28
2022-09-21T21:47:10.270Z,3.70
2022-09-21T21:49:45.720Z,3.50
2022-09-21T21:52:13.117Z,3.30
2022-09-21T21:54:39.395Z,2.75
2022-09-21T21:57:05.816Z,3.45
2022-09-21T21:59:32.531Z,3.42
2022-09-21T22:01:58.930Z,3.15
2022-09-21T22:04:27.773Z,2.97
2022-09-21T22:06:54.518Z,3.13
2022-09-21T22:09:22.127Z,2.97
2022-09-21T22:11:48.859Z,3.13
2022-09-21T22:14:15.162Z,2.83
2022-09-21T22:16:41.588Z,2.88
2022-09-21T22:19:26.496Z,2.75
2022-09-21T22:21:54.350Z,2.88
2022-09-21T22:24:21.257Z,2.65
2022-09-21T22:26:48.592Z,2.45
2022-09-21T22:29:16.495Z,2.70
2022-09-21T22:34:24.748Z,3.25
2022-09-21T22:36:51.186Z,2.78
2022-09-21T22:39:17.535Z,2.65
2022-09-21T22:41:43.859Z,2.90
2022-09-21T22:44:10.612Z,2.90
2022-09-21T22:46:37.249Z,2.75
2022-09-21T22:49:03.676Z,3.35
2022-09-21T22:51:30.133Z,3.35
2022-09-21T22:53:57.831Z,3.30
2022-09-21T22:56:28.740Z,2.90
2022-09-21T22:58:56.377Z,3.47
2022-09-21T23:01:30.520Z,3.60
2022-09-21T23:03:58.142Z,3.22
2022-09-21T23:06:26.727Z,3.58
2022-09-21T23:08:53.817Z,3.60
2022-09-21T23:11:21.720Z,3.50
2022-09-21T23:13:48.506Z,4.28
2022-09-21T23:16:15.559Z,4.25
2022-09-21T23:18:42.876Z,4.10
2022-09-21T23:21:16.595Z,3.53
2022-09-21T23:23:43.278Z,3.22
2022-09-21T23:26:15.658Z,3.88
2022-09-21T23:28:43.073Z,3.17
2022-09-21T23:31:11.264Z,3.28
2022-09-21T23:33:38.921Z,3.47
2022-09-21T23:36:06.006Z,3.60
2022-09-21T23:38:32.710Z,3.88
2022-09-21T23:41:07.058Z,3.78
2022-09-21T23:43:34.055Z,3.60
2022-09-21T23:49:06.986Z,3.70
2022-09-21T23:51:33.614Z,3.28
2022-09-21T23:54:00.299Z,3.50
2022-09-21T23:56:28.102Z,4.13
2022-09-21T23:58:54.679Z,3.88
